sensor_id;sensor_type;location;lat;lon;timestamp;P1;durP1;ratioP1;P2;durP2;ratioP2
3447;SDS011;1738;49.500;17.736;2022-12-11T00:02:21;17.33;;;8.90;;
3447;SDS011;1738;49.500;17.736;2022-12-11T00:04:46;15.73;;;8.50;;
3447;SDS011;1738;49.500;17.736;2022-12-11T00:07:12;10.70;;;8.03;;
3447;SDS011;1738;49.500;17.736;2022-12-11T00:09:38;12.50;;;7.70;;
3447;SDS011;1738;49.500;17.736;2022-12-11T00:12:04;16.57;;;7.80;;
3447;SDS011;1738;49.500;17.736;2022-12-11T00:14:31;12.40;;;8.40;;
3447;SDS011;1738;49.500;17.736;2022-12-11T00:16:57;7.57;;;4.30;;
3447;SDS011;1738;49.500;17.736;2022-12-11T00:19:24;7.53;;;5.50;;
3447;SDS011;1738;49.500;17.736;2022-12-11T00:21:50;11.77;;;6.00;;
3447;SDS011;1738;49.500;17.736;2022-12-11T00:24:17;6.50;;;4.37;;
3447;SDS011;1738;49.500;17.736;2022-12-11T00:26:43;11.47;;;4.80;;
3447;SDS011;1738;49.500;17.736;2022-12-11T00:29:10;18.80;;;7.27;;
3447;SDS011;1738;49.500;17.736;2022-12-11T00:31:36;7.47;;;4.43;;
3447;SDS011;1738;49.500;17.736;2022-12-11T00:34:03;12.13;;;6.30;;
3447;SDS011;1738;49.500;17.736;2022-12-11T00:36:28;13.27;;;6.43;;
3447;SDS011;1738;49.500;17.736;2022-12-11T00:38:56;13.13;;;7.63;;
3447;SDS011;1738;49.500;17.736;2022-12-11T00:41:21;9.57;;;5.27;;
3447;SDS011;1738;49.500;17.736;2022-12-11T00:43:47;10.17;;;5.03;;
3447;SDS011;1738;49.500;17.736;2022-12-11T00:46:13;12.63;;;6.80;;
3447;SDS011;1738;49.500;17.736;2022-12-11T00:48:40;17.30;;;8.20;;
3447;SDS011;1738;49.500;17.736;2022-12-11T00:51:06;9.40;;;6.73;;
3447;SDS011;1738;49.500;17.736;2022-12-11T00:53:32;8.43;;;6.80;;
3447;SDS011;1738;49.500;17.736;2022-12-11T01:01:44;6.70;;;3.37;;
3447;SDS011;1738;49.500;17.736;2022-12-11T01:04:11;16.93;;;6.50;;
3447;SDS011;1738;49.500;17.736;2022-12-11T01:06:37;9.00;;;5.50;;
3447;SDS011;1738;49.500;17.736;2022-12-11T01:09:03;13.70;;;5.60;;
3447;SDS011;1738;49.500;17.736;2022-12-11T01:11:35;13.30;;;5.70;;
3447;SDS011;1738;49.500;17.736;2022-12-11T01:14:00;14.87;;;7.37;;
3447;SDS011;1738;49.500;17.736;2022-12-11T01:16:26;10.57;;;6.60;;
3447;SDS011;1738;49.500;17.736;2022-12-11T01:18:52;9.23;;;5.37;;
3447;SDS011;1738;49.500;17.736;2022-12-11T01:21:18;15.00;;;8.43;;
3447;SDS011;1738;49.500;17.736;2022-12-11T01:23:45;7.83;;;5.17;;
3447;SDS011;1738;49.500;17.736;2022-12-11T01:26:11;8.03;;;4.70;;
3447;SDS011;1738;49.500;17.736;2022-12-11T01:28:36;13.13;;;7.67;;
3447;SDS011;1738;49.500;17.736;2022-12-11T01:31:06;9.63;;;5.60;;
3447;SDS011;1738;49.500;17.736;2022-12-11T01:33:29;12.53;;;7.97;;
3447;SDS011;1738;49.500;17.736;2022-12-11T01:35:55;11.53;;;6.60;;
3447;SDS011;1738;49.500;17.736;2022-12-11T01:38:20;21.42;;;7.95;;
3447;SDS011;1738;49.500;17.736;2022-12-11T01:40:47;13.80;;;7.97;;
3447;SDS011;1738;49.500;17.736;2022-12-11T01:43:12;18.10;;;12.63;;
3447;SDS011;1738;49.500;17.736;2022-12-11T01:45:39;21.37;;;11.52;;
3447;SDS011;1738;49.500;17.736;2022-12-11T01:48:05;9.67;;;6.60;;
3447;SDS011;1738;49.500;17.736;2022-12-11T01:50:30;9.73;;;6.43;;
3447;SDS011;1738;49.500;17.736;2022-12-11T01:52:56;9.73;;;6.50;;
3447;SDS011;1738;49.500;17.736;2022-12-11T01:55:22;10.70;;;6.73;;
3447;SDS011;1738;49.500;17.736;2022-12-11T01:57:48;15.30;;;8.73;;
3447;SDS011;1738;49.500;17.736;2022-12-11T02:00:14;17.47;;;8.80;;
3447;SDS011;1738;49.500;17.736;2022-12-11T02:02:40;13.70;;;8.47;;
3447;SDS011;1738;49.500;17.736;2022-12-11T02:05:06;14.67;;;8.00;;
3447;SDS011;1738;49.500;17.736;2022-12-11T02:10:05;15.90;;;7.67;;
3447;SDS011;1738;49.500;17.736;2022-12-11T02:12:38;13.77;;;9.00;;
3447;SDS011;1738;49.500;17.736;2022-12-11T02:15:05;10.63;;;5.77;;
3447;SDS011;1738;49.500;17.736;2022-12-11T02:20:17;11.13;;;6.10;;
3447;SDS011;1738;49.500;17.736;2022-12-11T02:22:59;13.30;;;8.20;;
3447;SDS011;1738;49.500;17.736;2022-12-11T02:25:25;9.50;;;5.40;;
3447;SDS011;1738;49.500;17.736;2022-12-11T02:27:51;11.00;;;7.33;;
3447;SDS011;1738;49.500;17.736;2022-12-11T02:30:16;14.43;;;7.53;;
3447;SDS011;1738;49.500;17.736;2022-12-11T02:32:44;10.63;;;5.20;;
3447;SDS011;1738;49.500;17.736;2022-12-11T02:35:10;4.97;;;3.40;;
3447;SDS011;1738;49.500;17.736;2022-12-11T02:37:34;6.70;;;4.57;;
3447;SDS011;1738;49.500;17.736;2022-12-11T02:39:59;12.33;;;7.50;;
3447;SDS011;1738;49.500;17.736;2022-12-11T02:42:26;5.63;;;3.70;;
3447;SDS011;1738;49.500;17.736;2022-12-11T02:44:51;10.50;;;5.70;;
3447;SDS011;1738;49.500;17.736;2022-12-11T02:47:17;4.33;;;2.77;;
3447;SDS011;1738;49.500;17.736;2022-12-11T02:49:44;13.67;;;5.90;;
3447;SDS011;1738;49.500;17.736;2022-12-11T02:52:10;10.17;;;4.57;;
3447;SDS011;1738;49.500;17.736;2022-12-11T02:54:35;7.67;;;5.50;;
3447;SDS011;1738;49.500;17.736;2022-12-11T02:57:04;6.85;;;4.18;;
3447;SDS011;1738;49.500;17.736;2022-12-11T02:59:31;9.27;;;6.13;;
3447;SDS011;1738;49.500;17.736;2022-12-11T03:01:55;6.03;;;4.30;;
3447;SDS011;1738;49.500;17.736;2022-12-11T03:04:21;5.77;;;4.63;;
3447;SDS011;1738;49.500;17.736;2022-12-11T03:06:48;6.33;;;2.80;;
3447;SDS011;1738;49.500;17.736;2022-12-11T03:09:14;9.20;;;5.70;;
3447;SDS011;1738;49.500;17.736;2022-12-11T03:11:41;6.33;;;5.20;;
3447;SDS011;1738;49.500;17.736;2022-12-11T03:14:07;9.10;;;5.13;;
3447;SDS011;1738;49.500;17.736;2022-12-11T03:16:33;14.70;;;3.87;;
3447;SDS011;1738;49.500;17.736;2022-12-11T03:19:07;7.20;;;4.53;;
3447;SDS011;1738;49.500;17.736;2022-12-11T03:21:32;5.13;;;3.63;;
3447;SDS011;1738;49.500;17.736;2022-12-11T03:24:04;5.28;;;3.47;;
3447;SDS011;1738;49.500;17.736;2022-12-11T03:26:31;8.47;;;6.17;;
3447;SDS011;1738;49.500;17.736;2022-12-11T03:28:57;5.77;;;3.90;;
3447;SDS011;1738;49.500;17.736;2022-12-11T03:31:41;6.33;;;3.33;;
3447;SDS011;1738;49.500;17.736;2022-12-11T03:34:10;11.00;;;5.90;;
3447;SDS011;1738;49.500;17.736;2022-12-11T03:36:35;4.93;;;3.95;;
3447;SDS011;1738;49.500;17.736;2022-12-11T03:39:00;10.40;;;5.40;;
3447;SDS011;1738;49.500;17.736;2022-12-11T03:41:25;7.40;;;4.50;;
3447;SDS011;1738;49.500;17.736;2022-12-11T03:43:52;6.37;;;4.13;;
3447;SDS011;1738;49.500;17.736;2022-12-11T03:46:17;7.53;;;4.13;;
3447;SDS011;1738;49.500;17.736;2022-12-11T03:48:43;5.03;;;3.83;;
3447;SDS011;1738;49.500;17.736;2022-12-11T03:51:10;7.10;;;4.70;;
3447;SDS011;1738;49.500;17.736;2022-12-11T03:53:37;8.07;;;5.10;;
3447;SDS011;1738;49.500;17.736;2022-12-11T03:56:03;5.35;;;3.72;;
3447;SDS011;1738;49.500;17.736;2022-12-11T03:58:29;8.97;;;3.73;;
3447;SDS011;1738;49.500;17.736;2022-12-11T04:00:55;5.70;;;3.97;;
3447;SDS011;1738;49.500;17.736;2022-12-11T04:03:21;4.57;;;2.90;;
3447;SDS011;1738;49.500;17.736;2022-12-11T04:05:48;6.90;;;4.30;;
3447;SDS011;1738;49.500;17.736;2022-12-11T04:08:13;9.07;;;5.77;;
3447;SDS011;1738;49.500;17.736;2022-12-11T04:10:39;8.52;;;3.53;;
3447;SDS011;1738;49.500;17.736;2022-12-11T04:13:05;6.70;;;3.77;;
3447;SDS011;1738;49.500;17.736;2022-12-11T04:15:31;7.80;;;4.70;;
3447;SDS011;1738;49.500;17.736;2022-12-11T04:17:57;6.37;;;3.70;;
3447;SDS011;1738;49.500;17.736;2022-12-11T04:20:38;7.77;;;4.87;;
3447;SDS011;1738;49.500;17.736;2022-12-11T04:23:11;5.20;;;3.40;;
3447;SDS011;1738;49.500;17.736;2022-12-11T04:25:41;7.77;;;3.80;;
3447;SDS011;1738;49.500;17.736;2022-12-11T04:28:07;8.70;;;4.17;;
3447;SDS011;1738;49.500;17.736;2022-12-11T04:30:33;8.67;;;4.93;;
3447;SDS011;1738;49.500;17.736;2022-12-11T04:32:59;5.67;;;3.03;;
3447;SDS011;1738;49.500;17.736;2022-12-11T04:35:25;7.13;;;4.63;;
3447;SDS011;1738;49.500;17.736;2022-12-11T04:37:51;14.10;;;6.40;;
3447;SDS011;1738;49.500;17.736;2022-12-11T04:40:17;7.13;;;4.40;;
3447;SDS011;1738;49.500;17.736;2022-12-11T04:42:42;5.57;;;3.90;;
3447;SDS011;1738;49.500;17.736;2022-12-11T04:45:10;8.80;;;5.97;;
3447;SDS011;1738;49.500;17.736;2022-12-11T04:47:37;4.87;;;3.50;;
3447;SDS011;1738;49.500;17.736;2022-12-11T04:50:03;9.63;;;5.50;;
3447;SDS011;1738;49.500;17.736;2022-12-11T04:52:28;7.77;;;4.17;;
3447;SDS011;1738;49.500;17.736;2022-12-11T04:54:54;5.37;;;4.82;;
3447;SDS011;1738;49.500;17.736;2022-12-11T04:57:20;10.03;;;5.17;;
3447;SDS011;1738;49.500;17.736;2022-12-11T04:59:46;13.27;;;5.40;;
3447;SDS011;1738;49.500;17.736;2022-12-11T05:02:13;6.87;;;4.43;;
3447;SDS011;1738;49.500;17.736;2022-12-11T05:04:38;11.57;;;6.10;;
3447;SDS011;1738;49.500;17.736;2022-12-11T05:07:04;7.67;;;4.50;;
3447;SDS011;1738;49.500;17.736;2022-12-11T05:09:30;9.90;;;4.70;;
3447;SDS011;1738;49.500;17.736;2022-12-11T05:11:56;10.40;;;5.57;;
3447;SDS011;1738;49.500;17.736;2022-12-11T05:14:22;7.60;;;6.83;;
3447;SDS011;1738;49.500;17.736;2022-12-11T05:16:48;8.57;;;6.23;;
3447;SDS011;1738;49.500;17.736;2022-12-11T05:19:14;8.50;;;5.40;;
3447;SDS011;1738;49.500;17.736;2022-12-11T05:21:39;10.70;;;5.43;;
3447;SDS011;1738;49.500;17.736;2022-12-11T05:24:05;11.97;;;7.13;;
3447;SDS011;1738;49.500;17.736;2022-12-11T05:26:31;8.73;;;5.67;;
3447;SDS011;1738;49.500;17.736;2022-12-11T05:28:57;8.87;;;4.00;;
3447;SDS011;1738;49.500;17.736;2022-12-11T05:31:24;8.57;;;5.27;;
3447;SDS011;1738;49.500;17.736;2022-12-11T05:33:49;7.30;;;4.13;;
3447;SDS011;1738;49.500;17.736;2022-12-11T05:36:16;10.48;;;5.50;;
3447;SDS011;1738;49.500;17.736;2022-12-11T05:38:42;10.60;;;7.10;;
3447;SDS011;1738;49.500;17.736;2022-12-11T05:41:07;11.73;;;6.30;;
3447;SDS011;1738;49.500;17.736;2022-12-11T05:43:35;11.50;;;6.87;;
3447;SDS011;1738;49.500;17.736;2022-12-11T05:46:06;8.48;;;4.78;;
3447;SDS011;1738;49.500;17.736;2022-12-11T05:48:31;11.13;;;6.50;;
3447;SDS011;1738;49.500;17.736;2022-12-11T05:50:57;9.00;;;4.53;;
3447;SDS011;1738;49.500;17.736;2022-12-11T05:53:23;25.17;;;8.07;;
3447;SDS011;1738;49.500;17.736;2022-12-11T05:55:49;10.03;;;5.50;;
3447;SDS011;1738;49.500;17.736;2022-12-11T05:58:14;8.40;;;4.93;;
3447;SDS011;1738;49.500;17.736;2022-12-11T06:00:41;12.33;;;6.33;;
3447;SDS011;1738;49.500;17.736;2022-12-11T06:03:06;12.60;;;6.97;;
3447;SDS011;1738;49.500;17.736;2022-12-11T06:05:36;13.97;;;7.90;;
3447;SDS011;1738;49.500;17.736;2022-12-11T06:07:58;11.30;;;7.37;;
3447;SDS011;1738;49.500;17.736;2022-12-11T06:10:24;9.90;;;5.30;;
3447;SDS011;1738;49.500;17.736;2022-12-11T06:12:51;9.13;;;4.60;;
3447;SDS011;1738;49.500;17.736;2022-12-11T06:15:17;10.37;;;7.60;;
3447;SDS011;1738;49.500;17.736;2022-12-11T06:17:43;15.63;;;6.60;;
3447;SDS011;1738;49.500;17.736;2022-12-11T06:20:10;9.97;;;6.07;;
3447;SDS011;1738;49.500;17.736;2022-12-11T06:22:36;8.50;;;5.43;;
3447;SDS011;1738;49.500;17.736;2022-12-11T06:25:02;7.37;;;5.18;;
3447;SDS011;1738;49.500;17.736;2022-12-11T06:27:28;15.90;;;10.53;;
3447;SDS011;1738;49.500;17.736;2022-12-11T06:29:54;13.53;;;8.10;;
3447;SDS011;1738;49.500;17.736;2022-12-11T06:32:19;13.33;;;5.83;;
3447;SDS011;1738;49.500;17.736;2022-12-11T06:34:45;9.20;;;5.60;;
3447;SDS011;1738;49.500;17.736;2022-12-11T06:37:12;11.17;;;5.43;;
3447;SDS011;1738;49.500;17.736;2022-12-11T06:39:38;6.23;;;4.10;;
3447;SDS011;1738;49.500;17.736;2022-12-11T06:42:03;8.67;;;5.03;;
3447;SDS011;1738;49.500;17.736;2022-12-11T06:44:29;11.60;;;5.03;;
3447;SDS011;1738;49.500;17.736;2022-12-11T06:46:55;14.30;;;7.43;;
3447;SDS011;1738;49.500;17.736;2022-12-11T06:49:21;11.40;;;6.63;;
3447;SDS011;1738;49.500;17.736;2022-12-11T06:51:47;6.30;;;5.30;;
3447;SDS011;1738;49.500;17.736;2022-12-11T06:54:13;8.27;;;5.32;;
3447;SDS011;1738;49.500;17.736;2022-12-11T06:56:38;15.90;;;7.33;;
3447;SDS011;1738;49.500;17.736;2022-12-11T06:59:04;11.40;;;5.53;;
3447;SDS011;1738;49.500;17.736;2022-12-11T07:01:30;8.30;;;4.27;;
3447;SDS011;1738;49.500;17.736;2022-12-11T07:03:57;11.83;;;6.50;;
3447;SDS011;1738;49.500;17.736;2022-12-11T07:06:22;14.80;;;7.37;;
3447;SDS011;1738;49.500;17.736;2022-12-11T07:08:48;14.02;;;6.82;;
3447;SDS011;1738;49.500;17.736;2022-12-11T07:11:14;10.00;;;5.17;;
3447;SDS011;1738;49.500;17.736;2022-12-11T07:13:40;11.87;;;6.60;;
3447;SDS011;1738;49.500;17.736;2022-12-11T07:16:07;8.80;;;5.37;;
3447;SDS011;1738;49.500;17.736;2022-12-11T07:18:33;10.70;;;7.07;;
3447;SDS011;1738;49.500;17.736;2022-12-11T07:20:59;9.60;;;3.77;;
3447;SDS011;1738;49.500;17.736;2022-12-11T07:23:34;11.20;;;5.17;;
3447;SDS011;1738;49.500;17.736;2022-12-11T07:26:04;8.50;;;5.37;;
3447;SDS011;1738;49.500;17.736;2022-12-11T07:28:29;13.33;;;8.00;;
3447;SDS011;1738;49.500;17.736;2022-12-11T07:30:55;9.23;;;5.10;;
3447;SDS011;1738;49.500;17.736;2022-12-11T07:33:21;11.70;;;6.73;;
3447;SDS011;1738;49.500;17.736;2022-12-11T07:35:48;11.17;;;6.67;;
3447;SDS011;1738;49.500;17.736;2022-12-11T07:38:14;13.87;;;6.43;;
3447;SDS011;1738;49.500;17.736;2022-12-11T07:40:40;24.73;;;6.07;;
3447;SDS011;1738;49.500;17.736;2022-12-11T07:43:06;16.13;;;6.53;;
3447;SDS011;1738;49.500;17.736;2022-12-11T07:45:31;13.27;;;7.60;;
3447;SDS011;1738;49.500;17.736;2022-12-11T07:47:58;8.80;;;4.43;;
3447;SDS011;1738;49.500;17.736;2022-12-11T07:50:23;13.80;;;6.40;;
3447;SDS011;1738;49.500;17.736;2022-12-11T07:52:49;12.50;;;7.20;;
3447;SDS011;1738;49.500;17.736;2022-12-11T07:55:16;14.33;;;7.60;;
3447;SDS011;1738;49.500;17.736;2022-12-11T07:57:42;13.60;;;9.00;;
3447;SDS011;1738;49.500;17.736;2022-12-11T08:00:08;16.33;;;7.87;;
3447;SDS011;1738;49.500;17.736;2022-12-11T08:02:34;20.77;;;9.73;;
3447;SDS011;1738;49.500;17.736;2022-12-11T08:05:00;10.53;;;6.37;;
3447;SDS011;1738;49.500;17.736;2022-12-11T08:07:26;18.12;;;9.13;;
3447;SDS011;1738;49.500;17.736;2022-12-11T08:09:52;11.90;;;7.37;;
3447;SDS011;1738;49.500;17.736;2022-12-11T08:12:17;11.20;;;7.50;;
3447;SDS011;1738;49.500;17.736;2022-12-11T08:14:43;14.02;;;8.05;;
3447;SDS011;1738;49.500;17.736;2022-12-11T08:17:09;15.87;;;9.60;;
3447;SDS011;1738;49.500;17.736;2022-12-11T08:19:36;15.20;;;7.90;;
3447;SDS011;1738;49.500;17.736;2022-12-11T08:22:02;10.80;;;6.30;;
3447;SDS011;1738;49.500;17.736;2022-12-11T08:24:29;15.13;;;8.13;;
3447;SDS011;1738;49.500;17.736;2022-12-11T08:26:55;16.37;;;9.33;;
3447;SDS011;1738;49.500;17.736;2022-12-11T08:29:24;16.60;;;9.55;;
3447;SDS011;1738;49.500;17.736;2022-12-11T08:31:49;12.80;;;7.60;;
3447;SDS011;1738;49.500;17.736;2022-12-11T08:34:16;20.73;;;10.50;;
3447;SDS011;1738;49.500;17.736;2022-12-11T08:36:42;21.97;;;10.23;;
3447;SDS011;1738;49.500;17.736;2022-12-11T08:39:09;21.43;;;13.37;;
3447;SDS011;1738;49.500;17.736;2022-12-11T08:41:37;23.03;;;11.23;;
3447;SDS011;1738;49.500;17.736;2022-12-11T08:44:03;20.33;;;10.87;;
3447;SDS011;1738;49.500;17.736;2022-12-11T08:46:30;15.10;;;9.73;;
3447;SDS011;1738;49.500;17.736;2022-12-11T08:48:57;11.47;;;8.20;;
3447;SDS011;1738;49.500;17.736;2022-12-11T08:51:23;16.77;;;9.70;;
3447;SDS011;1738;49.500;17.736;2022-12-11T08:53:48;11.60;;;6.17;;
3447;SDS011;1738;49.500;17.736;2022-12-11T08:56:15;18.90;;;10.37;;
3447;SDS011;1738;49.500;17.736;2022-12-11T08:58:40;15.88;;;10.20;;
3447;SDS011;1738;49.500;17.736;2022-12-11T09:01:07;17.70;;;9.60;;
3447;SDS011;1738;49.500;17.736;2022-12-11T09:03:32;24.37;;;12.07;;
3447;SDS011;1738;49.500;17.736;2022-12-11T09:05:58;14.00;;;8.30;;
3447;SDS011;1738;49.500;17.736;2022-12-11T09:08:26;15.47;;;10.17;;
3447;SDS011;1738;49.500;17.736;2022-12-11T09:10:52;11.30;;;7.27;;
3447;SDS011;1738;49.500;17.736;2022-12-11T09:13:19;16.50;;;11.17;;
3447;SDS011;1738;49.500;17.736;2022-12-11T09:15:45;11.50;;;6.37;;
3447;SDS011;1738;49.500;17.736;2022-12-11T09:18:13;17.37;;;10.50;;
3447;SDS011;1738;49.500;17.736;2022-12-11T09:20:39;10.80;;;7.40;;
3447;SDS011;1738;49.500;17.736;2022-12-11T09:23:05;28.00;;;15.77;;
3447;SDS011;1738;49.500;17.736;2022-12-11T09:25:31;20.87;;;10.10;;
3447;SDS011;1738;49.500;17.736;2022-12-11T09:27:57;17.60;;;9.50;;
3447;SDS011;1738;49.500;17.736;2022-12-11T09:30:23;21.20;;;10.50;;
3447;SDS011;1738;49.500;17.736;2022-12-11T09:32:49;11.18;;;6.18;;
3447;SDS011;1738;49.500;17.736;2022-12-11T09:35:15;17.17;;;10.27;;
3447;SDS011;1738;49.500;17.736;2022-12-11T09:37:41;19.73;;;12.90;;
3447;SDS011;1738;49.500;17.736;2022-12-11T09:40:09;19.87;;;11.27;;
3447;SDS011;1738;49.500;17.736;2022-12-11T09:42:41;22.67;;;12.27;;
3447;SDS011;1738;49.500;17.736;2022-12-11T09:45:04;18.10;;;11.63;;
3447;SDS011;1738;49.500;17.736;2022-12-11T09:47:33;15.03;;;8.93;;
3447;SDS011;1738;49.500;17.736;2022-12-11T09:50:03;17.50;;;9.17;;
3447;SDS011;1738;49.500;17.736;2022-12-11T09:52:31;17.57;;;10.33;;
3447;SDS011;1738;49.500;17.736;2022-12-11T09:54:56;28.30;;;16.90;;
3447;SDS011;1738;49.500;17.736;2022-12-11T09:57:56;35.10;;;19.63;;
3447;SDS011;1738;49.500;17.736;2022-12-11T10:00:20;31.37;;;18.60;;
3447;SDS011;1738;49.500;17.736;2022-12-11T10:02:53;20.17;;;10.97;;
3447;SDS011;1738;49.500;17.736;2022-12-11T10:05:18;23.92;;;13.40;;
3447;SDS011;1738;49.500;17.736;2022-12-11T10:10:21;35.03;;;17.27;;
3447;SDS011;1738;49.500;17.736;2022-12-11T10:12:52;36.07;;;20.33;;
3447;SDS011;1738;49.500;17.736;2022-12-11T10:17:46;23.87;;;13.80;;
3447;SDS011;1738;49.500;17.736;2022-12-11T10:20:20;27.40;;;13.73;;
3447;SDS011;1738;49.500;17.736;2022-12-11T10:22:44;32.27;;;17.73;;
3447;SDS011;1738;49.500;17.736;2022-12-11T10:25:19;22.27;;;11.60;;
3447;SDS011;1738;49.500;17.736;2022-12-11T10:27:44;76.03;;;38.70;;
3447;SDS011;1738;49.500;17.736;2022-12-11T10:30:13;187.80;;;100.75;;
3447;SDS011;1738;49.500;17.736;2022-12-11T10:37:54;37.17;;;21.93;;
3447;SDS011;1738;49.500;17.736;2022-12-11T10:40:18;49.15;;;23.00;;
3447;SDS011;1738;49.500;17.736;2022-12-11T10:42:51;32.23;;;15.10;;
3447;SDS011;1738;49.500;17.736;2022-12-11T10:45:16;28.50;;;14.07;;
3447;SDS011;1738;49.500;17.736;2022-12-11T10:47:42;38.40;;;17.70;;
3447;SDS011;1738;49.500;17.736;2022-12-11T10:52:44;26.58;;;14.85;;
3447;SDS011;1738;49.500;17.736;2022-12-11T10:57:44;18.73;;;9.80;;
3447;SDS011;1738;49.500;17.736;2022-12-11T11:02:43;30.63;;;13.50;;
3447;SDS011;1738;49.500;17.736;2022-12-11T11:05:10;21.03;;;12.53;;
3447;SDS011;1738;49.500;17.736;2022-12-11T11:07:35;21.27;;;10.47;;
3447;SDS011;1738;49.500;17.736;2022-12-11T11:10:04;26.03;;;14.20;;
3447;SDS011;1738;49.500;17.736;2022-12-11T11:12:28;18.17;;;9.37;;
3447;SDS011;1738;49.500;17.736;2022-12-11T11:14:59;19.20;;;11.13;;
3447;SDS011;1738;49.500;17.736;2022-12-11T11:17:24;22.25;;;13.35;;
3447;SDS011;1738;49.500;17.736;2022-12-11T11:19:50;21.60;;;11.20;;
3447;SDS011;1738;49.500;17.736;2022-12-11T11:22:16;18.10;;;10.97;;
3447;SDS011;1738;49.500;17.736;2022-12-11T11:24:44;18.42;;;11.85;;
3447;SDS011;1738;49.500;17.736;2022-12-11T11:27:43;22.20;;;12.93;;
3447;SDS011;1738;49.500;17.736;2022-12-11T11:29:51;19.80;;;11.67;;
3447;SDS011;1738;49.500;17.736;2022-12-11T11:32:21;21.17;;;11.37;;
3447;SDS011;1738;49.500;17.736;2022-12-11T11:34:45;13.97;;;7.83;;
3447;SDS011;1738;49.500;17.736;2022-12-11T11:37:24;44.27;;;25.37;;
3447;SDS011;1738;49.500;17.736;2022-12-11T11:39:43;51.25;;;27.92;;
3447;SDS011;1738;49.500;17.736;2022-12-11T11:42:13;23.53;;;14.43;;
3447;SDS011;1738;49.500;17.736;2022-12-11T11:44:43;26.43;;;15.17;;
3447;SDS011;1738;49.500;17.736;2022-12-11T11:47:18;27.40;;;17.60;;
3447;SDS011;1738;49.500;17.736;2022-12-11T11:49:45;21.77;;;13.97;;
3447;SDS011;1738;49.500;17.736;2022-12-11T11:53:18;26.23;;;11.30;;
3447;SDS011;1738;49.500;17.736;2022-12-11T11:55:02;32.77;;;19.33;;
3447;SDS011;1738;49.500;17.736;2022-12-11T11:59:57;64.77;;;33.57;;
3447;SDS011;1738;49.500;17.736;2022-12-11T12:02:33;34.60;;;23.93;;
3447;SDS011;1738;49.500;17.736;2022-12-11T12:05:01;42.20;;;23.43;;
3447;SDS011;1738;49.500;17.736;2022-12-11T12:07:39;40.20;;;25.80;;
3447;SDS011;1738;49.500;17.736;2022-12-11T12:13:02;33.90;;;20.17;;
3447;SDS011;1738;49.500;17.736;2022-12-11T12:15:29;29.13;;;16.30;;
3447;SDS011;1738;49.500;17.736;2022-12-11T12:20:42;29.97;;;16.37;;
3447;SDS011;1738;49.500;17.736;2022-12-11T12:34:12;44.03;;;22.37;;
3447;SDS011;1738;49.500;17.736;2022-12-11T12:39:47;31.77;;;15.70;;
3447;SDS011;1738;49.500;17.736;2022-12-11T12:45:02;49.60;;;27.20;;
3447;SDS011;1738;49.500;17.736;2022-12-11T12:47:29;39.03;;;21.20;;
3447;SDS011;1738;49.500;17.736;2022-12-11T12:49:57;48.83;;;25.63;;
3447;SDS011;1738;49.500;17.736;2022-12-11T12:52:33;31.20;;;17.70;;
3447;SDS011;1738;49.500;17.736;2022-12-11T12:55:02;40.70;;;21.93;;
3447;SDS011;1738;49.500;17.736;2022-12-11T12:57:32;33.40;;;20.60;;
3447;SDS011;1738;49.500;17.736;2022-12-11T13:00:00;28.73;;;17.97;;
3447;SDS011;1738;49.500;17.736;2022-12-11T13:02:29;36.03;;;21.40;;
3447;SDS011;1738;49.500;17.736;2022-12-11T13:04:57;28.97;;;19.80;;
3447;SDS011;1738;49.500;17.736;2022-12-11T13:07:24;28.37;;;17.53;;
3447;SDS011;1738;49.500;17.736;2022-12-11T13:12:20;30.67;;;18.30;;
3447;SDS011;1738;49.500;17.736;2022-12-11T13:14:46;71.60;;;30.53;;
3447;SDS011;1738;49.500;17.736;2022-12-11T13:19:44;46.00;;;24.23;;
3447;SDS011;1738;49.500;17.736;2022-12-11T13:22:20;46.63;;;22.30;;
3447;SDS011;1738;49.500;17.736;2022-12-11T13:24:56;41.70;;;20.10;;
3447;SDS011;1738;49.500;17.736;2022-12-11T13:29:46;29.67;;;16.87;;
3447;SDS011;1738;49.500;17.736;2022-12-11T13:32:21;31.20;;;15.30;;
3447;SDS011;1738;49.500;17.736;2022-12-11T13:34:51;24.03;;;13.63;;
3447;SDS011;1738;49.500;17.736;2022-12-11T13:37:20;36.87;;;25.93;;
3447;SDS011;1738;49.500;17.736;2022-12-11T13:39:44;24.50;;;16.13;;
3447;SDS011;1738;49.500;17.736;2022-12-11T13:44:51;24.50;;;14.53;;
3447;SDS011;1738;49.500;17.736;2022-12-11T13:47:17;27.20;;;14.53;;
3447;SDS011;1738;49.500;17.736;2022-12-11T13:49:45;32.43;;;20.97;;
3447;SDS011;1738;49.500;17.736;2022-12-11T13:52:18;65.80;;;36.23;;
3447;SDS011;1738;49.500;17.736;2022-12-11T13:54:49;43.37;;;25.77;;
3447;SDS011;1738;49.500;17.736;2022-12-11T13:57:15;31.23;;;16.93;;
3447;SDS011;1738;49.500;17.736;2022-12-11T13:59:42;30.83;;;19.37;;
3447;SDS011;1738;49.500;17.736;2022-12-11T14:02:14;24.50;;;14.97;;
3447;SDS011;1738;49.500;17.736;2022-12-11T14:04:38;25.10;;;16.87;;
3447;SDS011;1738;49.500;17.736;2022-12-11T14:07:09;15.70;;;10.50;;
3447;SDS011;1738;49.500;17.736;2022-12-11T14:09:37;14.43;;;9.10;;
3447;SDS011;1738;49.500;17.736;2022-12-11T14:12:03;15.90;;;10.40;;
3447;SDS011;1738;49.500;17.736;2022-12-11T14:14:33;20.47;;;13.73;;
3447;SDS011;1738;49.500;17.736;2022-12-11T14:16:56;21.77;;;14.43;;
3447;SDS011;1738;49.500;17.736;2022-12-11T14:19:22;21.00;;;13.60;;
3447;SDS011;1738;49.500;17.736;2022-12-11T14:24:22;37.70;;;23.40;;
3447;SDS011;1738;49.500;17.736;2022-12-11T14:26:49;33.00;;;21.17;;
3447;SDS011;1738;49.500;17.736;2022-12-11T14:31:46;44.50;;;28.33;;
3447;SDS011;1738;49.500;17.736;2022-12-11T14:34:14;44.63;;;25.30;;
3447;SDS011;1738;49.500;17.736;2022-12-11T14:36:39;33.70;;;24.00;;
3447;SDS011;1738;49.500;17.736;2022-12-11T14:39:10;42.67;;;29.00;;
3447;SDS011;1738;49.500;17.736;2022-12-11T14:41:35;50.77;;;37.83;;
3447;SDS011;1738;49.500;17.736;2022-12-11T14:43:59;34.63;;;23.57;;
3447;SDS011;1738;49.500;17.736;2022-12-11T14:46:33;29.33;;;19.90;;
3447;SDS011;1738;49.500;17.736;2022-12-11T14:48:56;42.93;;;23.77;;
3447;SDS011;1738;49.500;17.736;2022-12-11T14:51:20;34.73;;;20.67;;
3447;SDS011;1738;49.500;17.736;2022-12-11T14:53:46;28.90;;;18.90;;
3447;SDS011;1738;49.500;17.736;2022-12-11T14:56:17;33.90;;;20.97;;
3447;SDS011;1738;49.500;17.736;2022-12-11T14:58:43;31.07;;;20.80;;
3447;SDS011;1738;49.500;17.736;2022-12-11T15:03:41;38.87;;;23.50;;
3447;SDS011;1738;49.500;17.736;2022-12-11T15:08:38;24.93;;;18.40;;
3447;SDS011;1738;49.500;17.736;2022-12-11T15:11:06;39.60;;;21.60;;
3447;SDS011;1738;49.500;17.736;2022-12-11T15:13:31;40.73;;;26.47;;
3447;SDS011;1738;49.500;17.736;2022-12-11T15:15:57;56.27;;;44.70;;
3447;SDS011;1738;49.500;17.736;2022-12-11T15:18:26;103.90;;;57.90;;
3447;SDS011;1738;49.500;17.736;2022-12-11T15:20:50;61.50;;;41.57;;
3447;SDS011;1738;49.500;17.736;2022-12-11T15:23:16;135.07;;;74.60;;
3447;SDS011;1738;49.500;17.736;2022-12-11T15:25:47;62.60;;;40.57;;
3447;SDS011;1738;49.500;17.736;2022-12-11T15:28:31;56.57;;;30.57;;
3447;SDS011;1738;49.500;17.736;2022-12-11T15:30:58;105.93;;;64.63;;
3447;SDS011;1738;49.500;17.736;2022-12-11T15:33:24;54.13;;;35.27;;
3447;SDS011;1738;49.500;17.736;2022-12-11T15:35:53;46.40;;;29.57;;
3447;SDS011;1738;49.500;17.736;2022-12-11T15:40:50;131.17;;;64.63;;
3447;SDS011;1738;49.500;17.736;2022-12-11T15:43:17;73.33;;;48.67;;
3447;SDS011;1738;49.500;17.736;2022-12-11T15:45:43;41.07;;;28.63;;
3447;SDS011;1738;49.500;17.736;2022-12-11T15:48:12;43.57;;;27.63;;
3447;SDS011;1738;49.500;17.736;2022-12-11T15:50:38;36.40;;;23.30;;
3447;SDS011;1738;49.500;17.736;2022-12-11T15:53:04;46.00;;;27.93;;
3447;SDS011;1738;49.500;17.736;2022-12-11T15:55:30;30.23;;;19.13;;
3447;SDS011;1738;49.500;17.736;2022-12-11T15:57:58;38.27;;;25.10;;
3447;SDS011;1738;49.500;17.736;2022-12-11T16:00:23;29.03;;;17.57;;
3447;SDS011;1738;49.500;17.736;2022-12-11T16:02:51;30.03;;;19.00;;